createdAt,value
2019-02-03T00:00:38.791Z,31.80
2019-02-03T00:03:06.467Z,26.30
2019-02-03T00:05:34.267Z,27.83
2019-02-03T00:08:01.832Z,25.03
2019-02-03T00:10:29.087Z,26.60
2019-02-03T00:12:56.741Z,33.03
2019-02-03T00:15:24.442Z,27.20
2019-02-03T00:17:51.904Z,27.00
2019-02-03T00:20:19.624Z,26.13
2019-02-03T00:22:47.077Z,25.97
2019-02-03T00:25:14.652Z,24.33
2019-02-03T00:27:42.055Z,29.27
2019-02-03T00:30:09.940Z,23.50
2019-02-03T00:32:37.862Z,26.80
2019-02-03T00:35:05.557Z,30.47
2019-02-03T00:37:32.979Z,33.50
2019-02-03T00:40:00.424Z,29.40
2019-02-03T00:42:27.827Z,28.30
2019-02-03T00:44:55.213Z,31.90
2019-02-03T00:47:22.725Z,33.20
2019-02-03T00:49:50.114Z,30.93
2019-02-03T00:52:17.502Z,31.30
2019-02-03T00:54:44.934Z,33.73
2019-02-03T00:57:12.334Z,32.73
2019-02-03T00:59:39.726Z,30.03
2019-02-03T01:02:07.310Z,23.27
2019-02-03T01:04:34.701Z,25.03
2019-02-03T01:07:02.906Z,28.60
2019-02-03T01:09:30.503Z,20.53
2019-02-03T01:11:58.086Z,20.70
2019-02-03T01:14:25.802Z,22.63
2019-02-03T01:16:53.245Z,22.17
2019-02-03T01:19:20.635Z,25.33
2019-02-03T01:21:48.026Z,21.43
2019-02-03T01:24:16.071Z,20.30
2019-02-03T01:26:43.582Z,22.30
2019-02-03T01:29:10.970Z,19.13
2019-02-03T01:31:38.488Z,21.63
2019-02-03T01:34:05.886Z,19.97
2019-02-03T01:36:33.261Z,16.40
2019-02-03T01:39:00.994Z,18.93
2019-02-03T01:41:28.375Z,17.90
2019-02-03T01:43:55.772Z,16.07
2019-02-03T01:46:23.214Z,15.23
2019-02-03T01:48:50.606Z,15.30
2019-02-03T01:51:17.999Z,17.40
2019-02-03T01:53:45.549Z,14.77
2019-02-03T01:56:12.941Z,27.23
2019-02-03T01:58:40.341Z,14.23
2019-02-03T02:01:07.789Z,15.27
2019-02-03T02:03:35.269Z,16.90
2019-02-03T02:06:02.763Z,14.50
2019-02-03T02:08:30.373Z,13.80
2019-02-03T02:10:58.320Z,11.83
2019-02-03T02:13:26.102Z,13.30
2019-02-03T02:15:54.229Z,11.57
2019-02-03T02:18:21.642Z,12.20
2019-02-03T02:20:49.029Z,11.20
2019-02-03T02:23:16.629Z,12.73
2019-02-03T02:25:44.450Z,13.20
2019-02-03T02:28:11.834Z,12.20
2019-02-03T02:30:39.443Z,9.20
2019-02-03T02:33:06.844Z,10.77
2019-02-03T02:35:34.222Z,12.47
2019-02-03T02:38:06.282Z,8.20
2019-02-03T02:40:31.116Z,7.23
2019-02-03T02:42:58.804Z,7.57
2019-02-03T02:45:26.450Z,6.83
2019-02-03T02:47:53.830Z,8.13
2019-02-03T02:50:32.685Z,6.23
2019-02-03T02:53:00.074Z,5.67
2019-02-03T02:55:27.861Z,4.17
2019-02-03T02:57:55.430Z,4.00
2019-02-03T03:00:23.036Z,4.13
2019-02-03T03:02:50.431Z,3.17
2019-02-03T03:05:18.230Z,3.27
2019-02-03T03:07:45.831Z,4.10
2019-02-03T03:10:14.917Z,5.43
2019-02-03T03:12:42.342Z,5.27
2019-02-03T03:15:11.155Z,6.23
2019-02-03T03:17:38.547Z,4.20
2019-02-03T03:20:07.606Z,2.63
2019-02-03T03:22:35.013Z,2.10
2019-02-03T03:25:03.015Z,4.03
2019-02-03T03:27:30.454Z,4.60
2019-02-03T03:29:57.870Z,3.40
2019-02-03T03:32:25.260Z,2.17
2019-02-03T03:34:52.687Z,2.07
2019-02-03T03:37:20.151Z,5.07
2019-02-03T03:39:47.557Z,2.43
2019-02-03T03:42:15.786Z,2.97
2019-02-03T03:44:43.178Z,2.53
2019-02-03T03:47:10.574Z,3.10
2019-02-03T03:49:38.034Z,2.40
2019-02-03T03:52:05.525Z,1.93
2019-02-03T03:54:33.012Z,1.70
2019-02-03T03:57:00.595Z,1.30
2019-02-03T03:59:27.960Z,1.43
2019-02-03T04:01:55.356Z,1.53
2019-02-03T04:04:22.789Z,1.03
2019-02-03T04:06:50.220Z,1.20
2019-02-03T04:09:17.584Z,1.80
2019-02-03T04:11:45.015Z,2.10
2019-02-03T04:14:13.245Z,1.60
2019-02-03T04:16:40.628Z,2.77
2019-02-03T04:19:08.097Z,2.93
2019-02-03T04:21:35.484Z,1.93
2019-02-03T04:24:03.891Z,1.40
2019-02-03T04:26:31.363Z,1.50
2019-02-03T04:28:58.751Z,1.30
2019-02-03T04:31:26.146Z,1.97
2019-02-03T04:33:53.643Z,2.03
2019-02-03T04:36:20.989Z,3.43
2019-02-03T04:38:57.867Z,3.80
2019-02-03T04:41:17.876Z,4.43
2019-02-03T04:43:45.266Z,4.70
2019-02-03T04:46:12.957Z,4.17
2019-02-03T04:48:40.507Z,3.30
2019-02-03T04:51:07.894Z,3.30
2019-02-03T04:53:35.321Z,2.90
2019-02-03T04:56:03.039Z,3.13
2019-02-03T04:58:30.433Z,2.47
2019-02-03T05:00:57.830Z,2.70
2019-02-03T05:03:25.523Z,2.70
2019-02-03T05:05:52.919Z,2.13
2019-02-03T05:08:20.303Z,1.90
2019-02-03T05:10:47.710Z,3.20
2019-02-03T05:13:15.178Z,2.47
2019-02-03T05:15:43.483Z,2.20
2019-02-03T05:18:11.223Z,3.03
2019-02-03T05:20:38.628Z,3.47
2019-02-03T05:23:06.014Z,3.17
2019-02-03T05:25:33.426Z,3.47
2019-02-03T05:28:00.822Z,2.57
2019-02-03T05:30:30.481Z,2.20
2019-02-03T05:32:58.353Z,3.20
2019-02-03T05:35:25.747Z,1.70
2019-02-03T05:37:53.238Z,4.30
2019-02-03T05:40:20.842Z,4.90
2019-02-03T05:42:48.263Z,3.00
2019-02-03T05:45:17.014Z,3.93
2019-02-03T05:47:44.482Z,1.80
2019-02-03T05:50:13.566Z,3.17
2019-02-03T05:52:41.241Z,2.50
2019-02-03T05:55:08.773Z,1.67
2019-02-03T05:57:36.197Z,1.93
2019-02-03T06:00:05.454Z,2.63
2019-02-03T06:02:33.023Z,4.90
2019-02-03T06:05:00.818Z,3.37
2019-02-03T06:07:28.214Z,3.50
2019-02-03T06:09:55.646Z,1.90
2019-02-03T06:12:23.286Z,1.90
2019-02-03T06:14:51.301Z,2.93
2019-02-03T06:17:18.738Z,2.20
2019-02-03T06:19:46.446Z,2.30
2019-02-03T06:22:13.835Z,1.90
2019-02-03T06:24:41.251Z,1.80
2019-02-03T06:27:08.662Z,2.00
2019-02-03T06:29:36.061Z,1.73
2019-02-03T06:32:03.742Z,1.80
2019-02-03T06:34:31.134Z,2.20
2019-02-03T06:36:58.787Z,1.90
2019-02-03T06:39:26.283Z,1.90
2019-02-03T06:41:53.674Z,1.80
2019-02-03T06:44:21.078Z,2.17
2019-02-03T06:47:02.823Z,1.83
2019-02-03T06:49:37.854Z,1.83
2019-02-03T06:52:06.054Z,2.10
2019-02-03T06:54:33.454Z,2.37
2019-02-03T06:57:00.851Z,2.80
2019-02-03T06:59:28.306Z,2.10
2019-02-03T07:01:55.694Z,2.40
2019-02-03T07:04:23.083Z,2.50
2019-02-03T07:06:50.669Z,2.93
2019-02-03T07:09:18.075Z,3.03
2019-02-03T07:11:45.478Z,3.77
2019-02-03T07:14:12.910Z,3.00
2019-02-03T07:16:43.334Z,4.00
2019-02-03T07:19:09.864Z,3.80
2019-02-03T07:21:37.294Z,3.70
2019-02-03T07:24:04.732Z,3.30
2019-02-03T07:26:32.123Z,3.57
2019-02-03T07:28:59.606Z,3.33
2019-02-03T07:31:26.993Z,5.77
2019-02-03T07:33:54.545Z,6.57
2019-02-03T07:36:21.982Z,8.80
2019-02-03T07:38:49.395Z,6.47
2019-02-03T07:41:16.792Z,4.47
2019-02-03T07:43:44.354Z,6.00
2019-02-03T07:46:11.750Z,3.83
2019-02-03T07:48:39.289Z,6.20
2019-02-03T07:51:07.118Z,4.70
2019-02-03T07:53:34.563Z,5.10
2019-02-03T07:56:01.966Z,4.80
2019-02-03T07:58:29.423Z,5.60
2019-02-03T08:00:56.832Z,6.30
2019-02-03T08:03:25.617Z,6.20
2019-02-03T08:05:53.166Z,7.27
2019-02-03T08:08:20.875Z,11.23
2019-02-03T08:10:48.254Z,7.17
2019-02-03T08:13:15.688Z,9.83
2019-02-03T08:15:43.450Z,8.67
2019-02-03T08:18:10.836Z,8.00
2019-02-03T08:20:38.631Z,6.90
2019-02-03T08:23:06.019Z,26.57
2019-02-03T08:25:33.421Z,16.83
2019-02-03T08:28:00.847Z,14.93
2019-02-03T08:30:28.368Z,24.20
2019-02-03T08:32:55.866Z,22.43
2019-02-03T08:35:23.303Z,18.50
2019-02-03T08:37:50.710Z,15.00
2019-02-03T08:40:19.254Z,7.43
2019-02-03T08:42:47.122Z,16.90
2019-02-03T08:45:16.847Z,7.40
2019-02-03T08:47:45.676Z,4.97
2019-02-03T08:50:15.811Z,6.00
2019-02-03T08:52:43.197Z,5.97
2019-02-03T08:55:11.510Z,4.20
2019-02-03T08:57:39.059Z,6.83
2019-02-03T09:00:11.955Z,5.30
2019-02-03T09:02:39.383Z,4.17
2019-02-03T09:05:08.516Z,20.13
2019-02-03T09:07:35.909Z,97.43
2019-02-03T09:10:04.096Z,20.03
2019-02-03T09:12:31.538Z,15.73
2019-02-03T09:14:59.019Z,11.93
2019-02-03T09:17:26.440Z,3.20
2019-02-03T09:19:53.888Z,3.15
2019-02-03T09:22:21.281Z,3.43
2019-02-03T09:24:48.674Z,3.20
2019-02-03T09:27:16.110Z,3.47
2019-02-03T09:29:43.523Z,7.50
2019-02-03T09:32:11.350Z,4.93
2019-02-03T09:34:38.982Z,11.83
2019-02-03T09:37:06.485Z,22.90
2019-02-03T09:39:33.897Z,78.73
2019-02-03T09:42:01.984Z,17.00
2019-02-03T09:44:29.471Z,7.60
2019-02-03T09:46:56.859Z,4.40
2019-02-03T09:49:24.322Z,3.00
2019-02-03T09:51:51.990Z,4.40
2019-02-03T09:54:19.394Z,4.60
2019-02-03T09:56:46.833Z,2.97
2019-02-03T09:59:14.533Z,3.50
2019-02-03T10:01:41.953Z,3.30
2019-02-03T10:04:11.798Z,2.30
2019-02-03T10:06:39.206Z,2.50
2019-02-03T10:09:07.583Z,3.00
2019-02-03T10:11:35.051Z,10.17
2019-02-03T10:14:03.327Z,11.13
2019-02-03T10:16:31.306Z,6.83
2019-02-03T10:18:59.290Z,14.70
2019-02-03T10:21:26.683Z,11.53
2019-02-03T10:23:54.076Z,10.03
2019-02-03T10:26:21.517Z,14.97
2019-02-03T10:28:48.926Z,17.33
2019-02-03T10:31:16.326Z,12.93
2019-02-03T10:33:43.922Z,12.30
2019-02-03T10:36:11.435Z,16.33
2019-02-03T10:38:38.952Z,10.97
2019-02-03T10:41:06.600Z,8.37
2019-02-03T10:43:33.997Z,9.17
2019-02-03T10:46:01.791Z,9.67
2019-02-03T10:48:29.493Z,11.90
2019-02-03T10:50:56.906Z,11.30
2019-02-03T10:53:24.316Z,13.87
2019-02-03T10:55:51.816Z,11.83
2019-02-03T10:58:19.214Z,15.37
2019-02-03T11:00:46.618Z,10.83
2019-02-03T11:03:14.074Z,8.93
2019-02-03T11:05:47.173Z,12.63
2019-02-03T11:08:15.031Z,10.13
2019-02-03T11:10:43.262Z,25.93
2019-02-03T11:13:30.356Z,34.83
2019-02-03T11:15:58.501Z,43.93
2019-02-03T11:18:25.951Z,31.23
2019-02-03T11:20:53.341Z,22.30
2019-02-03T11:23:20.902Z,33.33
2019-02-03T11:25:48.304Z,22.57
2019-02-03T11:28:15.691Z,7.50
2019-02-03T11:30:43.275Z,3.47
2019-02-03T11:33:10.677Z,3.33
2019-02-03T11:35:38.089Z,3.43
2019-02-03T11:38:05.967Z,2.80
2019-02-03T11:40:34.012Z,3.50
2019-02-03T11:43:01.526Z,2.70
2019-02-03T11:45:31.750Z,2.30
2019-02-03T11:47:59.500Z,2.60
2019-02-03T11:50:30.261Z,2.70
2019-02-03T11:52:57.992Z,3.40
2019-02-03T11:55:25.452Z,2.33
2019-02-03T11:57:52.979Z,4.67
2019-02-03T12:00:22.530Z,2.73
2019-02-03T12:02:49.936Z,2.93
2019-02-03T12:05:17.744Z,2.70
2019-02-03T12:07:45.430Z,3.07
2019-02-03T12:10:15.682Z,3.33
2019-02-03T12:12:43.085Z,3.50
2019-02-03T12:15:13.500Z,3.00
2019-02-03T12:17:41.338Z,3.47
2019-02-03T12:20:10.059Z,3.70
2019-02-03T12:22:37.793Z,4.20
2019-02-03T12:25:06.825Z,3.80
2019-02-03T12:27:34.272Z,5.17
2019-02-03T12:30:02.005Z,4.37
2019-02-03T12:32:29.422Z,24.03
2019-02-03T12:34:57.039Z,5.50
2019-02-03T12:37:24.711Z,7.80
2019-02-03T12:39:52.114Z,6.17
2019-02-03T12:42:19.506Z,5.90
2019-02-03T12:44:46.986Z,6.27
2019-02-03T12:47:14.456Z,10.20
2019-02-03T12:49:42.465Z,7.10
2019-02-03T12:52:10.095Z,6.30
2019-02-03T12:54:37.495Z,6.20
2019-02-03T12:57:04.906Z,5.40
2019-02-03T12:59:32.683Z,5.33
2019-02-03T13:02:00.093Z,6.17
2019-02-03T13:04:27.485Z,7.50
2019-02-03T13:06:56.001Z,5.20
2019-02-03T13:09:23.411Z,5.93
2019-02-03T13:11:50.808Z,7.50
2019-02-03T13:14:18.274Z,5.53
2019-02-03T13:16:46.072Z,8.87
2019-02-03T13:19:15.607Z,7.77
2019-02-03T13:21:42.916Z,5.87
2019-02-03T13:24:10.417Z,8.07
2019-02-03T13:26:37.826Z,6.63
2019-02-03T13:29:05.515Z,5.20
2019-02-03T13:31:32.933Z,6.43
2019-02-03T13:34:00.358Z,4.53
2019-02-03T13:36:28.103Z,6.93
2019-02-03T13:38:55.531Z,4.23
2019-02-03T13:41:23.125Z,4.60
2019-02-03T13:43:50.798Z,4.97
2019-02-03T13:46:18.210Z,4.13
2019-02-03T13:48:45.597Z,6.50
2019-02-03T13:51:13.067Z,4.13
2019-02-03T13:53:40.454Z,3.90
2019-02-03T13:56:07.852Z,4.40
2019-02-03T13:58:37.008Z,4.67
2019-02-03T14:01:04.570Z,4.93
2019-02-03T14:03:31.957Z,4.30
2019-02-03T14:05:59.428Z,4.67
2019-02-03T14:08:26.919Z,4.03
2019-02-03T14:10:54.308Z,6.27
2019-02-03T14:13:21.742Z,6.63
2019-02-03T14:15:49.453Z,7.07
2019-02-03T14:18:17.543Z,5.27
2019-02-03T14:20:46.568Z,4.47
2019-02-03T14:23:15.418Z,5.07
2019-02-03T14:25:43.962Z,8.17
2019-02-03T14:28:12.340Z,8.17
2019-02-03T14:30:42.018Z,7.87
2019-02-03T14:33:09.786Z,8.50
2019-02-03T14:35:37.237Z,6.50
2019-02-03T14:38:06.136Z,9.70
2019-02-03T14:40:33.517Z,5.33
2019-02-03T14:43:02.275Z,6.93
2019-02-03T14:45:30.144Z,5.17
2019-02-03T14:47:57.551Z,5.83
2019-02-03T14:50:25.390Z,5.33
2019-02-03T14:52:53.874Z,6.10
2019-02-03T14:55:23.904Z,9.10
2019-02-03T14:57:51.358Z,6.77
2019-02-03T15:00:24.750Z,9.07
2019-02-03T15:02:52.180Z,7.00
2019-02-03T15:05:20.272Z,7.00
2019-02-03T15:07:47.757Z,4.63
2019-02-03T15:10:15.251Z,6.80
2019-02-03T15:12:42.699Z,4.23
2019-02-03T15:15:12.306Z,4.03
2019-02-03T15:17:39.869Z,4.83
2019-02-03T15:20:10.646Z,6.83
2019-02-03T15:22:38.062Z,4.00
2019-02-03T15:25:05.751Z,6.50
2019-02-03T15:27:33.370Z,6.23
2019-02-03T15:30:00.789Z,6.70
2019-02-03T15:32:28.202Z,5.10
2019-02-03T15:34:55.641Z,7.87
2019-02-03T15:37:23.029Z,6.60
2019-02-03T15:39:50.504Z,5.00
2019-02-03T15:42:17.896Z,5.03
2019-02-03T15:44:45.320Z,5.17
2019-02-03T15:47:12.709Z,8.30
2019-02-03T15:49:40.327Z,13.70
2019-02-03T15:52:08.226Z,15.27
2019-02-03T15:54:35.575Z,11.83
2019-02-03T15:57:03.362Z,22.60
2019-02-03T15:59:30.767Z,10.33
2019-02-03T16:01:58.282Z,19.67
2019-02-03T16:04:25.934Z,20.00
2019-02-03T16:06:53.338Z,13.57
2019-02-03T16:09:20.767Z,14.00
2019-02-03T16:11:48.408Z,17.50
2019-02-03T16:14:15.815Z,32.77
2019-02-03T16:16:43.455Z,16.00
2019-02-03T16:19:11.255Z,16.70
2019-02-03T16:21:38.642Z,13.97
2019-02-03T16:24:06.535Z,14.00
2019-02-03T16:26:34.103Z,12.83
2019-02-03T16:29:01.923Z,9.80
2019-02-03T16:31:29.410Z,17.50
2019-02-03T16:33:57.123Z,15.60
2019-02-03T16:36:24.897Z,16.57
2019-02-03T16:38:52.306Z,18.40
2019-02-03T16:41:19.748Z,12.20
2019-02-03T16:43:49.214Z,8.63
2019-02-03T16:46:16.346Z,14.90
2019-02-03T16:48:44.049Z,11.43
2019-02-03T16:51:11.427Z,10.33
2019-02-03T16:53:39.210Z,9.27
2019-02-03T16:56:06.746Z,20.83
2019-02-03T16:58:34.145Z,20.80
2019-02-03T17:01:01.534Z,51.07
2019-02-03T17:03:29.061Z,14.37
2019-02-03T17:05:56.501Z,34.50
2019-02-03T17:08:23.953Z,15.87
2019-02-03T17:10:51.550Z,12.80
2019-02-03T17:13:19.370Z,17.80
2019-02-03T17:16:00.854Z,7.07
2019-02-03T17:18:28.598Z,10.07
2019-02-03T17:21:02.089Z,9.83
2019-02-03T17:23:25.896Z,16.53
2019-02-03T17:26:00.326Z,11.00
2019-02-03T17:28:27.826Z,10.63
2019-02-03T17:30:55.476Z,10.90
2019-02-03T17:33:22.850Z,8.27
2019-02-03T17:35:54.551Z,10.37
2019-02-03T17:38:19.637Z,9.90
2019-02-03T17:40:47.333Z,9.23
2019-02-03T17:43:14.735Z,10.10
2019-02-03T17:45:42.237Z,11.10
2019-02-03T17:48:09.762Z,12.90
2019-02-03T17:50:38.066Z,9.27
2019-02-03T17:53:05.554Z,14.53
2019-02-03T17:55:32.980Z,11.97
2019-02-03T17:58:00.592Z,14.03
2019-02-03T18:00:40.150Z,18.40
2019-02-03T18:03:07.618Z,15.37
2019-02-03T18:05:35.159Z,11.93
2019-02-03T18:08:02.943Z,12.50
2019-02-03T18:10:30.735Z,12.50
2019-02-03T18:12:58.133Z,12.13
2019-02-03T18:15:25.717Z,14.07
2019-02-03T18:17:53.427Z,12.77
2019-02-03T18:20:21.221Z,12.80
2019-02-03T18:22:48.994Z,10.30
2019-02-03T18:25:16.407Z,12.67
2019-02-03T18:27:44.015Z,11.53
2019-02-03T18:30:17.917Z,11.33
2019-02-03T18:32:45.320Z,11.37
2019-02-03T18:35:12.862Z,12.20
2019-02-03T18:37:40.333Z,13.47
2019-02-03T18:40:09.095Z,10.57
2019-02-03T18:42:36.511Z,12.40
2019-02-03T18:45:05.292Z,11.60
2019-02-03T18:47:32.741Z,12.73
2019-02-03T18:50:00.220Z,10.53
2019-02-03T18:52:27.826Z,10.27
2019-02-03T18:54:55.240Z,10.10
2019-02-03T18:57:23.052Z,11.40
2019-02-03T18:59:50.590Z,12.63
2019-02-03T19:02:18.004Z,11.37
2019-02-03T19:04:45.413Z,11.80
2019-02-03T19:07:13.983Z,11.73
2019-02-03T19:09:41.339Z,12.90
2019-02-03T19:12:10.667Z,10.83
2019-02-03T19:14:47.095Z,14.90
2019-02-03T19:17:07.765Z,14.90
2019-02-03T19:19:35.373Z,12.53
2019-02-03T19:22:02.978Z,13.63
2019-02-03T19:24:30.374Z,11.50
2019-02-03T19:26:57.796Z,13.20
2019-02-03T19:29:25.533Z,17.80
2019-02-03T19:31:52.924Z,13.37
2019-02-03T19:34:20.333Z,13.63
2019-02-03T19:36:47.979Z,14.80
2019-02-03T19:39:15.410Z,14.00
2019-02-03T19:41:42.878Z,10.93
2019-02-03T19:44:10.417Z,12.23
2019-02-03T19:46:37.855Z,16.30
2019-02-03T19:49:05.389Z,14.97
2019-02-03T19:51:32.814Z,12.43
2019-02-03T19:54:00.238Z,13.37
2019-02-03T19:56:27.644Z,12.00
2019-02-03T19:58:55.124Z,11.00
2019-02-03T20:01:23.037Z,18.20
2019-02-03T20:03:50.497Z,17.30
2019-02-03T20:06:17.983Z,12.73
2019-02-03T20:08:45.426Z,12.37
2019-02-03T20:11:12.839Z,15.70
2019-02-03T20:13:40.294Z,13.30
2019-02-03T20:16:07.802Z,13.10
2019-02-03T20:18:35.643Z,12.20
2019-02-03T20:21:03.331Z,12.70
2019-02-03T20:23:30.733Z,12.43
2019-02-03T20:25:58.179Z,15.40
2019-02-03T20:28:25.933Z,9.63
2019-02-03T20:30:53.438Z,10.60
2019-02-03T20:33:21.020Z,11.87
2019-02-03T20:35:48.640Z,9.00
2019-02-03T20:38:16.046Z,11.73
2019-02-03T20:40:43.598Z,14.73
2019-02-03T20:43:11.381Z,10.27
2019-02-03T20:45:49.104Z,13.47
2019-02-03T20:48:10.731Z,10.63
2019-02-03T20:50:37.477Z,10.43
2019-02-03T20:53:05.153Z,16.30
2019-02-03T20:55:32.549Z,12.70
2019-02-03T20:58:00.112Z,11.37
2019-02-03T21:00:29.592Z,12.70
2019-02-03T21:02:57.284Z,10.73
2019-02-03T21:05:24.813Z,11.83
2019-02-03T21:07:52.421Z,10.37
2019-02-03T21:10:21.135Z,9.20
2019-02-03T21:12:49.222Z,12.50
2019-02-03T21:15:18.856Z,10.60
2019-02-03T21:17:46.516Z,8.90
2019-02-03T21:20:19.378Z,8.90
2019-02-03T21:22:46.805Z,10.00
2019-02-03T21:25:14.734Z,10.40
2019-02-03T21:27:42.391Z,9.30
2019-02-03T21:30:13.038Z,12.03
2019-02-03T21:32:40.446Z,13.70
2019-02-03T21:35:08.733Z,10.10
2019-02-03T21:37:36.536Z,12.13
2019-02-03T21:40:08.282Z,10.03
2019-02-03T21:42:35.950Z,13.30
2019-02-03T21:45:05.193Z,21.13
2019-02-03T21:47:32.581Z,27.73
2019-02-03T21:50:00.034Z,15.63
2019-02-03T21:52:27.723Z,14.13
2019-02-03T21:54:55.123Z,12.93
2019-02-03T21:57:22.882Z,10.03
2019-02-03T21:59:50.275Z,10.30
2019-02-03T22:02:17.831Z,12.20
2019-02-03T22:04:45.674Z,43.60
2019-02-03T22:07:13.071Z,14.37
2019-02-03T22:09:40.465Z,11.87
2019-02-03T22:12:08.151Z,14.10
2019-02-03T22:14:35.557Z,11.20
2019-02-03T22:17:03.007Z,13.30
2019-02-03T22:19:30.735Z,8.90
2019-02-03T22:21:58.549Z,10.93
2019-02-03T22:24:26.253Z,9.53
2019-02-03T22:26:53.861Z,7.60
2019-02-03T22:29:21.251Z,9.47
2019-02-03T22:31:48.686Z,9.00
2019-02-03T22:34:16.136Z,8.73
2019-02-03T22:36:43.546Z,9.77
2019-02-03T22:39:10.958Z,7.80
2019-02-03T22:41:38.389Z,9.27
2019-02-03T22:44:07.676Z,8.70
2019-02-03T22:46:34.965Z,7.37
2019-02-03T22:49:02.868Z,7.70
2019-02-03T22:51:30.267Z,8.43
2019-02-03T22:53:57.669Z,8.80
2019-02-03T22:56:25.458Z,8.27
2019-02-03T22:58:52.855Z,9.30
2019-02-03T23:01:26.826Z,9.10
2019-02-03T23:04:00.577Z,9.57
2019-02-03T23:06:29.137Z,6.37
2019-02-03T23:08:58.428Z,8.00
2019-02-03T23:11:25.978Z,8.77
2019-02-03T23:13:53.370Z,6.87
2019-02-03T23:16:20.770Z,7.70
2019-02-03T23:18:48.192Z,11.87
2019-02-03T23:21:15.746Z,9.40
2019-02-03T23:23:43.645Z,7.40
2019-02-03T23:26:11.162Z,9.37
2019-02-03T23:28:38.562Z,8.43
2019-02-03T23:31:05.965Z,8.03
2019-02-03T23:33:33.655Z,9.70
2019-02-03T23:36:01.046Z,9.37
2019-02-03T23:38:28.615Z,10.10
2019-02-03T23:40:56.453Z,10.07
2019-02-03T23:43:23.782Z,7.50
2019-02-03T23:45:52.994Z,7.90
2019-02-03T23:48:20.678Z,8.20
2019-02-03T23:50:48.061Z,7.37
2019-02-03T23:53:15.471Z,8.67
2019-02-03T23:55:42.909Z,11.40
2019-02-03T23:58:10.604Z,10.10
